Time;durP1;ratioP1;P1;durP2;ratioP2;P2;SDS_P1;SDS_P2;PMS_P1;PMS_P2;Temp;Humidity;BMP_temperature;BMP_pressure;BME280_temperature;BME280_humidity;BME280_pressure;Samples;Min_cycle;Max_cycle;Signal;HPM_P1;HPM_P2
2024/01/24 00:01:17;;;;;;;9.48;2.85;;;;;;;;;;5006893;28;25076;-65
2024/01/24 00:03:43;;;;;;;4.15;2.92;;;;;;;;;;4999690;28;25110;-64
2024/01/24 00:06:09;;;;;;;3.95;2.58;;;;;;;;;;5002351;28;25063;-65
2024/01/24 00:08:35;;;;;;;4.38;2.75;;;;;;;;;;4996802;28;25117;-63
2024/01/24 00:11:01;;;;;;;6.07;2.85;;;;;;;;;;5002289;28;25097;-64
2024/01/24 00:13:27;;;;;;;4.05;2.70;;;;;;;;;;5005314;28;25058;-64
2024/01/24 00:15:54;;;;;;;5.70;2.88;;;;;;;;;;4997271;28;25071;-66
2024/01/24 00:18:20;;;;;;;5.43;3.10;;;;;;;;;;5027423;28;25079;-65
2024/01/24 00:20:45;;;;;;;9.38;3.40;;;;;;;;;;5002266;28;25090;-67
2024/01/24 00:23:11;;;;;;;4.32;3.38;;;;;;;;;;5004264;28;25067;-62
2024/01/24 00:25:37;;;;;;;6.43;3.55;;;;;;;;;;5003500;28;25076;-62
2024/01/24 00:28:05;;;;;;;5.20;3.83;;;;;;;;;;5001142;28;25085;-63
2024/01/24 00:30:31;;;;;;;4.18;3.78;;;;;;;;;;5006192;28;25062;-69
2024/01/24 00:32:57;;;;;;;4.60;3.20;;;;;;;;;;5005007;28;25138;-64
2024/01/24 00:35:23;;;;;;;6.20;3.30;;;;;;;;;;4999949;28;25068;-67
2024/01/24 00:37:49;;;;;;;3.58;3.28;;;;;;;;;;4997058;28;25074;-67
2024/01/24 00:40:15;;;;;;;4.45;3.40;;;;;;;;;;5000559;28;25080;-63
2024/01/24 00:42:42;;;;;;;3.80;3.28;;;;;;;;;;5000780;28;25058;-65
2024/01/24 00:45:09;;;;;;;5.10;3.30;;;;;;;;;;5000394;28;25154;-64
2024/01/24 00:47:35;;;;;;;3.50;3.15;;;;;;;;;;5002025;28;25132;-63
2024/01/24 00:50:04;;;;;;;3.45;3.15;;;;;;;;;;5000066;28;25075;-64
2024/01/24 00:52:30;;;;;;;7.15;3.17;;;;;;;;;;4996296;28;25073;-64
2024/01/24 00:54:56;;;;;;;3.47;3.17;;;;;;;;;;5028294;28;25062;-64
2024/01/24 00:57:22;;;;;;;6.20;3.90;;;;;;;;;;5018097;28;25065;-63
2024/01/24 00:59:48;;;;;;;4.53;3.50;;;;;;;;;;5018234;28;25106;-65
2024/01/24 01:02:14;;;;;;;5.47;3.70;;;;;;;;;;5010359;28;25075;-66
2024/01/24 01:04:40;;;;;;;4.63;3.33;;;;;;;;;;5005108;28;25067;-64
2024/01/24 01:07:06;;;;;;;7.45;3.65;;;;;;;;;;5005801;28;25080;-64
2024/01/24 01:09:32;;;;;;;5.07;3.92;;;;;;;;;;5003764;28;25129;-62
2024/01/24 01:11:58;;;;;;;3.78;3.40;;;;;;;;;;4998389;28;25052;-63
2024/01/24 01:14:24;;;;;;;5.95;3.55;;;;;;;;;;4998484;28;25069;-65
2024/01/24 01:16:50;;;;;;;6.47;3.80;;;;;;;;;;5003238;28;25133;-65
2024/01/24 01:19:16;;;;;;;8.13;3.92;;;;;;;;;;5000654;28;25052;-65
2024/01/24 01:21:42;;;;;;;4.60;4.25;;;;;;;;;;5016231;28;25065;-66
2024/01/24 01:24:09;;;;;;;4.38;4.00;;;;;;;;;;4999588;28;25103;-67
2024/01/24 01:26:35;;;;;;;8.75;5.15;;;;;;;;;;4999965;28;24988;-64
2024/01/24 01:29:01;;;;;;;4.07;3.78;;;;;;;;;;4999986;28;25133;-66
2024/01/24 01:31:27;;;;;;;5.60;4.10;;;;;;;;;;5002476;28;25063;-64
2024/01/24 01:33:53;;;;;;;4.93;3.67;;;;;;;;;;5001525;28;25086;-68
2024/01/24 01:36:19;;;;;;;6.75;3.97;;;;;;;;;;4999217;28;25055;-64
2024/01/24 01:38:45;;;;;;;4.32;4.00;;;;;;;;;;4998620;28;25056;-67
2024/01/24 01:41:11;;;;;;;5.88;4.05;;;;;;;;;;4998291;28;25096;-64
2024/01/24 01:43:37;;;;;;;4.45;4.05;;;;;;;;;;4998803;28;25102;-64
2024/01/24 01:46:07;;;;;;;6.70;4.22;;;;;;;;;;4991531;28;25073;-66
2024/01/24 01:48:34;;;;;;;5.65;4.72;;;;;;;;;;4995879;28;25068;-63
2024/01/24 01:51:00;;;;;;;5.60;4.55;;;;;;;;;;4991300;28;25104;-65
2024/01/24 01:53:26;;;;;;;9.73;4.60;;;;;;;;;;4999878;28;25095;-64
2024/01/24 01:55:52;;;;;;;5.97;3.78;;;;;;;;;;4995894;28;25074;-66
2024/01/24 01:58:18;;;;;;;7.45;4.22;;;;;;;;;;4995820;28;25076;-64
2024/01/24 02:00:46;;;;;;;8.25;4.60;;;;;;;;;;4993494;28;25056;-67
2024/01/24 02:03:12;;;;;;;4.80;4.03;;;;;;;;;;5003300;28;25143;-66
2024/01/24 02:05:39;;;;;;;9.02;3.97;;;;;;;;;;4995152;28;25055;-66
2024/01/24 02:08:05;;;;;;;7.65;4.10;;;;;;;;;;4999837;28;25113;-65
2024/01/24 02:10:31;;;;;;;7.95;3.78;;;;;;;;;;4995835;28;25059;-64
2024/01/24 02:12:57;;;;;;;8.70;3.60;;;;;;;;;;4996632;28;25055;-67
2024/01/24 02:15:23;;;;;;;5.13;3.10;;;;;;;;;;5001210;28;25153;-67
2024/01/24 02:17:49;;;;;;;8.45;3.95;;;;;;;;;;4991203;28;25068;-68
2024/01/24 02:20:18;;;;;;;6.38;4.15;;;;;;;;;;4996624;28;25093;-67
2024/01/24 02:22:44;;;;;;;10.50;4.82;;;;;;;;;;4998745;28;25124;-70
2024/01/24 02:25:10;;;;;;;12.38;3.88;;;;;;;;;;4999504;28;25062;-66
2024/01/24 02:27:36;;;;;;;10.20;4.13;;;;;;;;;;5002986;28;25153;-65
2024/01/24 02:30:02;;;;;;;11.75;3.38;;;;;;;;;;4999244;28;25051;-66
2024/01/24 02:32:28;;;;;;;8.90;4.00;;;;;;;;;;5007052;28;25055;-62
2024/01/24 02:34:54;;;;;;;19.20;4.53;;;;;;;;;;5000547;28;25162;-65
2024/01/24 02:37:20;;;;;;;12.68;3.85;;;;;;;;;;5000600;28;25065;-66
2024/01/24 02:39:49;;;;;;;11.98;5.00;;;;;;;;;;5004413;28;25068;-65
2024/01/24 02:42:15;;;;;;;19.58;5.25;;;;;;;;;;4979324;28;25075;-66
2024/01/24 02:44:41;;;;;;;18.85;5.80;;;;;;;;;;4995510;28;25103;-64
2024/01/24 02:47:07;;;;;;;19.83;4.75;;;;;;;;;;4994004;28;25098;-66
2024/01/24 02:49:33;;;;;;;22.90;7.13;;;;;;;;;;4997935;28;25066;-65
2024/01/24 02:52:02;;;;;;;16.23;4.72;;;;;;;;;;4996319;28;25101;-64
2024/01/24 02:54:28;;;;;;;12.68;4.60;;;;;;;;;;4997587;28;25054;-63
2024/01/24 02:56:54;;;;;;;13.27;4.57;;;;;;;;;;5003700;28;25095;-64
2024/01/24 02:59:20;;;;;;;17.50;5.38;;;;;;;;;;4996343;28;25093;-64
2024/01/24 03:01:46;;;;;;;21.90;4.95;;;;;;;;;;4995159;28;25080;-63
2024/01/24 03:04:12;;;;;;;19.35;4.97;;;;;;;;;;4997863;28;25061;-64
2024/01/24 03:06:41;;;;;;;17.15;4.93;;;;;;;;;;4995617;28;25076;-65
2024/01/24 03:09:07;;;;;;;18.52;5.28;;;;;;;;;;4997157;28;25060;-64
2024/01/24 03:11:33;;;;;;;30.70;7.32;;;;;;;;;;4993903;28;25058;-63
2024/01/24 03:13:59;;;;;;;27.42;7.13;;;;;;;;;;5003205;28;25102;-63
2024/01/24 03:16:25;;;;;;;23.00;6.53;;;;;;;;;;5009517;28;25096;-64
2024/01/24 03:18:51;;;;;;;29.75;6.38;;;;;;;;;;5005064;28;25108;-63
2024/01/24 03:21:18;;;;;;;24.52;6.72;;;;;;;;;;5009526;28;25081;-65
2024/01/24 03:23:44;;;;;;;33.17;7.80;;;;;;;;;;4999970;28;25069;-64
2024/01/24 03:26:13;;;;;;;38.45;8.63;;;;;;;;;;5003456;28;25137;-62
2024/01/24 03:28:39;;;;;;;31.30;8.60;;;;;;;;;;4997276;28;25066;-65
2024/01/24 03:31:05;;;;;;;35.00;7.50;;;;;;;;;;5003969;28;25085;-64
2024/01/24 03:33:31;;;;;;;31.83;7.78;;;;;;;;;;5002273;28;25111;-64
2024/01/24 03:35:57;;;;;;;44.42;8.52;;;;;;;;;;5000940;28;25133;-65
2024/01/24 03:38:22;;;;;;;35.75;8.95;;;;;;;;;;5000283;28;25081;-65
2024/01/24 03:40:48;;;;;;;39.85;10.52;;;;;;;;;;5002519;28;25066;-64
2024/01/24 03:43:14;;;;;;;51.50;10.35;;;;;;;;;;4998637;28;25106;-62
2024/01/24 03:45:40;;;;;;;39.72;10.65;;;;;;;;;;4997406;28;25079;-64
2024/01/24 03:48:07;;;;;;;47.47;11.07;;;;;;;;;;5003439;28;25074;-64
2024/01/24 03:50:33;;;;;;;52.88;11.73;;;;;;;;;;5006554;28;25070;-66
2024/01/24 03:53:02;;;;;;;45.95;11.38;;;;;;;;;;4999299;28;25073;-63
2024/01/24 03:55:31;;;;;;;51.05;11.35;;;;;;;;;;4999100;28;25064;-63
2024/01/24 03:57:57;;;;;;;53.22;11.27;;;;;;;;;;5002985;28;25154;-65
2024/01/24 04:00:27;;;;;;;50.30;11.02;;;;;;;;;;5003876;28;25071;-65
2024/01/24 04:02:53;;;;;;;63.85;11.75;;;;;;;;;;5002029;28;25136;-65
2024/01/24 04:05:19;;;;;;;45.95;11.38;;;;;;;;;;4998578;28;25070;-64
2024/01/24 04:07:45;;;;;;;57.67;11.90;;;;;;;;;;5005738;28;25071;-65
2024/01/24 04:10:11;;;;;;;64.88;11.43;;;;;;;;;;4999608;28;25114;-62
2024/01/24 04:12:38;;;;;;;51.08;11.57;;;;;;;;;;5009678;28;25096;-65
2024/01/24 04:15:04;;;;;;;46.58;10.90;;;;;;;;;;5007099;28;25062;-65
2024/01/24 04:17:30;;;;;;;51.15;12.80;;;;;;;;;;4999755;28;25067;-66
2024/01/24 04:19:56;;;;;;;56.42;10.90;;;;;;;;;;5000334;28;25080;-64
2024/01/24 04:22:22;;;;;;;47.55;11.25;;;;;;;;;;4995649;28;25053;-65
2024/01/24 04:24:48;;;;;;;52.67;11.43;;;;;;;;;;5006882;28;25079;-65
2024/01/24 04:27:15;;;;;;;64.95;12.93;;;;;;;;;;5008570;28;25071;-64
2024/01/24 04:29:42;;;;;;;50.70;12.30;;;;;;;;;;5003032;28;25086;-65
2024/01/24 04:32:09;;;;;;;51.45;12.13;;;;;;;;;;5000250;28;25072;-64
2024/01/24 04:34:35;;;;;;;56.92;12.70;;;;;;;;;;5000407;28;25093;-65
2024/01/24 04:37:01;;;;;;;48.05;13.05;;;;;;;;;;4994996;28;25100;-66
2024/01/24 04:39:27;;;;;;;54.97;13.65;;;;;;;;;;5004847;28;25060;-65
2024/01/24 04:41:53;;;;;;;53.65;14.00;;;;;;;;;;5003608;28;25062;-63
2024/01/24 04:44:19;;;;;;;50.75;12.43;;;;;;;;;;5004282;28;25066;-67
2024/01/24 04:46:45;;;;;;;67.18;14.52;;;;;;;;;;4995113;28;25097;-65
2024/01/24 04:49:11;;;;;;;62.20;14.88;;;;;;;;;;4999106;28;25101;-65
2024/01/24 04:51:37;;;;;;;49.20;13.93;;;;;;;;;;5004513;28;25065;-64
2024/01/24 04:54:04;;;;;;;56.80;12.98;;;;;;;;;;4993079;28;25052;-63
2024/01/24 04:56:30;;;;;;;60.97;13.57;;;;;;;;;;5003927;28;25053;-64
2024/01/24 04:58:56;;;;;;;63.30;14.77;;;;;;;;;;4998497;28;25287;-64
2024/01/24 05:01:22;;;;;;;60.80;13.48;;;;;;;;;;4998224;28;25158;-65
2024/01/24 05:03:48;;;;;;;70.35;12.63;;;;;;;;;;4998138;28;25071;-65
2024/01/24 05:06:14;;;;;;;70.03;14.15;;;;;;;;;;4999280;28;25066;-66
2024/01/24 05:08:40;;;;;;;62.42;12.68;;;;;;;;;;4997297;28;25133;-67
2024/01/24 05:11:06;;;;;;;79.40;15.30;;;;;;;;;;4998611;28;25105;-64
2024/01/24 05:13:32;;;;;;;80.03;15.52;;;;;;;;;;4998028;28;25067;-64
2024/01/24 05:16:01;;;;;;;58.42;14.50;;;;;;;;;;5004140;28;25079;-63
2024/01/24 05:18:27;;;;;;;61.15;13.85;;;;;;;;;;5002288;28;25126;-66
2024/01/24 05:20:53;;;;;;;62.63;14.57;;;;;;;;;;4997324;28;25104;-64
2024/01/24 05:23:19;;;;;;;57.45;15.68;;;;;;;;;;5004133;28;25052;-64
2024/01/24 05:25:45;;;;;;;68.13;14.75;;;;;;;;;;4996482;28;25054;-66
2024/01/24 05:28:12;;;;;;;62.20;13.73;;;;;;;;;;4994714;28;25052;-65
2024/01/24 05:30:38;;;;;;;71.85;14.57;;;;;;;;;;5010887;28;25077;-65
2024/01/24 05:33:05;;;;;;;82.97;18.20;;;;;;;;;;5012597;28;25062;-63
2024/01/24 05:35:31;;;;;;;59.75;14.15;;;;;;;;;;5012472;28;25087;-67
2024/01/24 05:37:57;;;;;;;68.47;15.05;;;;;;;;;;5013825;28;25078;-63
2024/01/24 05:40:23;;;;;;;78.93;15.85;;;;;;;;;;5000670;28;25123;-65
2024/01/24 05:42:49;;;;;;;77.15;16.88;;;;;;;;;;5006221;28;25073;-64
2024/01/24 05:45:15;;;;;;;69.35;15.80;;;;;;;;;;4986795;28;25071;-65
2024/01/24 05:47:43;;;;;;;69.20;15.75;;;;;;;;;;4994087;28;25057;-63
2024/01/24 05:50:12;;;;;;;73.38;15.95;;;;;;;;;;4997270;28;25064;-64
2024/01/24 05:52:42;;;;;;;72.53;17.42;;;;;;;;;;5003241;28;25132;-64
2024/01/24 05:55:09;;;;;;;74.13;15.60;;;;;;;;;;4995934;28;25079;-63
2024/01/24 05:57:39;;;;;;;82.25;17.13;;;;;;;;;;4999585;28;25087;-65
2024/01/24 06:00:08;;;;;;;74.13;15.80;;;;;;;;;;5001672;28;25143;-63
2024/01/24 06:02:34;;;;;;;69.50;16.70;;;;;;;;;;5003079;28;25126;-64
2024/01/24 06:05:00;;;;;;;72.80;17.02;;;;;;;;;;5004492;28;25057;-63
2024/01/24 06:07:25;;;;;;;81.28;15.25;;;;;;;;;;5000765;28;25059;-62
2024/01/24 06:09:51;;;;;;;77.90;19.15;;;;;;;;;;5003571;28;25126;-65
2024/01/24 06:12:18;;;;;;;76.15;16.42;;;;;;;;;;4998602;28;25101;-63
2024/01/24 06:14:45;;;;;;;68.85;14.88;;;;;;;;;;5001299;28;25140;-64
2024/01/24 06:17:11;;;;;;;73.60;15.45;;;;;;;;;;4995702;28;25082;-64
2024/01/24 06:19:36;;;;;;;76.28;16.35;;;;;;;;;;5000906;28;25060;-66
2024/01/24 06:22:02;;;;;;;67.35;16.48;;;;;;;;;;4995728;28;25129;-64
2024/01/24 06:24:28;;;;;;;70.13;17.02;;;;;;;;;;4998303;28;25124;-64
2024/01/24 06:26:54;;;;;;;75.18;17.45;;;;;;;;;;5002628;28;25066;-62
2024/01/24 06:29:20;;;;;;;66.38;15.68;;;;;;;;;;4999343;28;25065;-63
2024/01/24 06:31:46;;;;;;;74.93;14.25;;;;;;;;;;5001178;28;25057;-62
2024/01/24 06:34:12;;;;;;;72.53;14.55;;;;;;;;;;4999118;28;25082;-63
2024/01/24 06:36:39;;;;;;;73.88;15.15;;;;;;;;;;4996511;28;25078;-65
2024/01/24 06:39:06;;;;;;;72.72;15.65;;;;;;;;;;4994754;28;25139;-64
2024/01/24 06:41:32;;;;;;;75.93;17.05;;;;;;;;;;4999199;28;25045;-64
2024/01/24 06:43:58;;;;;;;67.30;14.85;;;;;;;;;;4991729;28;25075;-63
2024/01/24 06:46:26;;;;;;;90.35;16.35;;;;;;;;;;4999409;28;25066;-65
2024/01/24 06:48:53;;;;;;;64.07;15.63;;;;;;;;;;4999784;28;25153;-63
2024/01/24 06:51:19;;;;;;;70.00;14.60;;;;;;;;;;4997280;28;25323;-65
2024/01/24 06:53:45;;;;;;;74.90;17.98;;;;;;;;;;5002503;28;25059;-65
2024/01/24 06:56:11;;;;;;;77.22;15.77;;;;;;;;;;4997747;28;25069;-65
2024/01/24 06:58:37;;;;;;;78.70;15.32;;;;;;;;;;4998062;28;25077;-61
2024/01/24 07:01:03;;;;;;;74.18;14.90;;;;;;;;;;4995680;28;25077;-63
2024/01/24 07:03:29;;;;;;;66.75;14.60;;;;;;;;;;5000565;28;25178;-62
2024/01/24 07:05:55;;;;;;;75.78;15.32;;;;;;;;;;5003679;28;25061;-64
2024/01/24 07:08:21;;;;;;;73.35;16.25;;;;;;;;;;4999893;28;25128;-62
2024/01/24 07:10:47;;;;;;;70.85;14.27;;;;;;;;;;5001931;28;25046;-61
2024/01/24 07:13:13;;;;;;;78.90;16.55;;;;;;;;;;5001361;28;25090;-63
2024/01/24 07:15:39;;;;;;;82.93;16.08;;;;;;;;;;5004334;28;25162;-63
2024/01/24 07:18:05;;;;;;;71.47;15.15;;;;;;;;;;5004721;28;25079;-64
2024/01/24 07:20:31;;;;;;;74.55;16.38;;;;;;;;;;5001992;28;25118;-64
2024/01/24 07:22:57;;;;;;;84.82;16.27;;;;;;;;;;5003611;28;25070;-63
2024/01/24 07:25:24;;;;;;;61.47;13.98;;;;;;;;;;5004336;28;25070;-65
2024/01/24 07:27:50;;;;;;;65.63;15.05;;;;;;;;;;4997084;28;25142;-65
2024/01/24 07:30:16;;;;;;;80.20;16.90;;;;;;;;;;5001857;28;25055;-62
2024/01/24 07:32:42;;;;;;;79.30;16.58;;;;;;;;;;5000405;28;25079;-65
2024/01/24 07:35:09;;;;;;;66.95;15.35;;;;;;;;;;5004276;28;25113;-65
2024/01/24 07:37:35;;;;;;;76.38;14.75;;;;;;;;;;5002503;28;25059;-66
2024/01/24 07:40:01;;;;;;;65.82;15.15;;;;;;;;;;5007517;28;25070;-63
2024/01/24 07:42:29;;;;;;;83.32;16.10;;;;;;;;;;5003343;28;25121;-65
2024/01/24 07:44:55;;;;;;;67.57;14.88;;;;;;;;;;4999552;28;25148;-64
2024/01/24 07:47:21;;;;;;;83.97;16.92;;;;;;;;;;5002310;28;25059;-65
2024/01/24 07:49:47;;;;;;;73.50;15.93;;;;;;;;;;5007755;28;25053;-63
2024/01/24 07:52:13;;;;;;;70.50;13.48;;;;;;;;;;5015545;28;25056;-64
2024/01/24 07:54:39;;;;;;;71.22;15.23;;;;;;;;;;5013939;28;25065;-63
2024/01/24 07:57:06;;;;;;;72.03;14.25;;;;;;;;;;5019853;28;25057;-63
2024/01/24 07:59:32;;;;;;;73.63;15.27;;;;;;;;;;5010769;28;25040;-63
2024/01/24 08:01:58;;;;;;;79.32;16.23;;;;;;;;;;4991772;28;25074;-65
2024/01/24 08:04:24;;;;;;;63.20;14.48;;;;;;;;;;4988835;28;25054;-63
2024/01/24 08:06:50;;;;;;;61.15;13.70;;;;;;;;;;5002101;28;25133;-66
2024/01/24 08:09:17;;;;;;;76.53;17.42;;;;;;;;;;5003317;28;25075;-63
2024/01/24 08:11:44;;;;;;;67.40;14.30;;;;;;;;;;5002488;28;25103;-64
2024/01/24 08:14:10;;;;;;;74.00;15.82;;;;;;;;;;4993116;28;25103;-65
2024/01/24 08:16:36;;;;;;;75.95;16.48;;;;;;;;;;4999378;28;25090;-66
2024/01/24 08:19:02;;;;;;;74.50;13.77;;;;;;;;;;4999672;28;25089;-65
2024/01/24 08:21:28;;;;;;;75.57;14.02;;;;;;;;;;5002697;28;25079;-63
2024/01/24 08:23:54;;;;;;;74.32;14.57;;;;;;;;;;4999847;28;25077;-64
2024/01/24 08:26:21;;;;;;;77.82;14.98;;;;;;;;;;5006733;28;25071;-64
2024/01/24 08:28:47;;;;;;;76.78;14.70;;;;;;;;;;5005628;28;25156;-63
2024/01/24 08:31:13;;;;;;;79.90;15.93;;;;;;;;;;5003892;28;25079;-64
2024/01/24 08:33:40;;;;;;;71.55;16.40;;;;;;;;;;5001764;28;25137;-63
2024/01/24 08:36:06;;;;;;;88.97;16.52;;;;;;;;;;5005113;28;25094;-63
2024/01/24 08:38:32;;;;;;;74.15;15.30;;;;;;;;;;5001389;28;25063;-63
2024/01/24 08:40:58;;;;;;;82.53;17.60;;;;;;;;;;5002674;28;25062;-65
2024/01/24 08:43:24;;;;;;;79.97;16.25;;;;;;;;;;5008349;28;25084;-64
2024/01/24 08:45:50;;;;;;;83.25;16.80;;;;;;;;;;5007882;28;25095;-63
2024/01/24 08:48:17;;;;;;;84.68;15.27;;;;;;;;;;5004619;28;25156;-65
2024/01/24 08:50:43;;;;;;;74.85;17.00;;;;;;;;;;5003285;28;25134;-64
2024/01/24 08:53:09;;;;;;;85.53;16.27;;;;;;;;;;5001577;28;25047;-66
2024/01/24 08:55:35;;;;;;;74.18;16.08;;;;;;;;;;5000538;28;25060;-65
2024/01/24 08:58:01;;;;;;;81.18;15.38;;;;;;;;;;5003636;28;25109;-64
2024/01/24 09:00:27;;;;;;;70.22;14.57;;;;;;;;;;5002223;28;25080;-63
2024/01/24 09:02:53;;;;;;;78.93;16.88;;;;;;;;;;4998281;28;25076;-63
2024/01/24 09:05:20;;;;;;;76.20;14.73;;;;;;;;;;5002620;28;25054;-63
2024/01/24 09:07:47;;;;;;;77.72;15.88;;;;;;;;;;5001635;28;25055;-65
2024/01/24 09:10:13;;;;;;;72.05;16.73;;;;;;;;;;4997774;28;25068;-65
2024/01/24 09:12:39;;;;;;;94.95;17.33;;;;;;;;;;5001481;28;25065;-63
2024/01/24 09:15:05;;;;;;;75.40;15.73;;;;;;;;;;5001960;28;25108;-64
2024/01/24 09:17:33;;;;;;;72.53;15.98;;;;;;;;;;5007393;28;25137;-64
2024/01/24 09:19:59;;;;;;;77.65;16.00;;;;;;;;;;5005369;28;25060;-63
2024/01/24 09:22:25;;;;;;;71.68;16.77;;;;;;;;;;5006298;28;25154;-65
2024/01/24 09:24:51;;;;;;;78.82;16.00;;;;;;;;;;5006245;28;25070;-65
2024/01/24 09:27:17;;;;;;;81.15;15.68;;;;;;;;;;5004578;28;25117;-64
2024/01/24 09:29:43;;;;;;;74.75;14.98;;;;;;;;;;5001726;28;25074;-62
2024/01/24 09:32:09;;;;;;;76.10;16.80;;;;;;;;;;5001796;28;25086;-65
2024/01/24 09:34:35;;;;;;;88.20;18.42;;;;;;;;;;5000995;28;25070;-66
2024/01/24 09:37:01;;;;;;;76.78;16.08;;;;;;;;;;5005013;28;25062;-64
2024/01/24 09:39:27;;;;;;;76.28;16.92;;;;;;;;;;5005450;28;25082;-64
2024/01/24 09:41:53;;;;;;;86.25;17.63;;;;;;;;;;4999645;28;25056;-65
2024/01/24 09:44:19;;;;;;;68.43;15.65;;;;;;;;;;4999759;28;25052;-66
2024/01/24 09:46:47;;;;;;;78.32;15.70;;;;;;;;;;5001658;28;25099;-64
2024/01/24 09:49:15;;;;;;;82.03;17.45;;;;;;;;;;5002116;28;25088;-64
2024/01/24 09:51:41;;;;;;;76.78;15.60;;;;;;;;;;5000681;28;25113;-65
2024/01/24 09:54:08;;;;;;;74.22;15.75;;;;;;;;;;4994798;28;25044;-64
2024/01/24 09:56:35;;;;;;;72.40;16.10;;;;;;;;;;5006217;28;25141;-66
2024/01/24 09:59:03;;;;;;;88.53;16.13;;;;;;;;;;5002957;28;25070;-65
2024/01/24 10:01:31;;;;;;;74.05;14.43;;;;;;;;;;5004914;28;25067;-65
2024/01/24 10:03:59;;;;;;;75.55;15.68;;;;;;;;;;5001448;28;25047;-63
2024/01/24 10:06:25;;;;;;;69.28;14.18;;;;;;;;;;5001278;28;25068;-63
2024/01/24 10:08:52;;;;;;;84.63;14.25;;;;;;;;;;5002253;28;25056;-64
2024/01/24 10:11:18;;;;;;;65.68;14.55;;;;;;;;;;5004350;28;25053;-68
2024/01/24 10:13:44;;;;;;;72.30;14.80;;;;;;;;;;5017448;28;25073;-63
2024/01/24 10:16:10;;;;;;;75.40;14.98;;;;;;;;;;5008347;28;25072;-66
2024/01/24 10:18:36;;;;;;;74.80;16.15;;;;;;;;;;5012890;28;25156;-64
2024/01/24 10:21:03;;;;;;;67.72;14.35;;;;;;;;;;5004412;28;25079;-65
2024/01/24 10:23:33;;;;;;;70.65;14.55;;;;;;;;;;5002742;28;25142;-67
2024/01/24 10:25:59;;;;;;;67.15;14.65;;;;;;;;;;5002310;28;25136;-64
2024/01/24 10:28:25;;;;;;;73.85;15.50;;;;;;;;;;4997785;28;25066;-65
2024/01/24 10:30:51;;;;;;;62.13;13.52;;;;;;;;;;5002296;28;25079;-64
2024/01/24 10:33:17;;;;;;;66.18;14.80;;;;;;;;;;4999769;28;25056;-63
2024/01/24 10:35:43;;;;;;;69.60;14.77;;;;;;;;;;5004243;28;25136;-64
2024/01/24 10:38:11;;;;;;;59.65;13.68;;;;;;;;;;4997274;28;25067;-65
2024/01/24 10:40:39;;;;;;;75.90;13.85;;;;;;;;;;5004979;28;25068;-63
2024/01/24 10:43:08;;;;;;;68.65;15.05;;;;;;;;;;5003442;28;25056;-67
2024/01/24 10:45:35;;;;;;;56.67;12.82;;;;;;;;;;5005804;28;25104;-66
2024/01/24 10:48:01;;;;;;;65.78;13.82;;;;;;;;;;5003023;28;25097;-65
2024/01/24 10:50:27;;;;;;;66.38;15.07;;;;;;;;;;5004145;28;25138;-66
2024/01/24 10:52:53;;;;;;;66.40;13.68;;;;;;;;;;5004251;28;25086;-67
2024/01/24 10:55:21;;;;;;;61.97;12.13;;;;;;;;;;5001927;28;25081;-64
2024/01/24 10:57:47;;;;;;;58.97;13.80;;;;;;;;;;5003639;28;25147;-65
2024/01/24 11:00:15;;;;;;;70.05;15.30;;;;;;;;;;5001711;28;25069;-67
2024/01/24 11:02:41;;;;;;;62.45;13.70;;;;;;;;;;5007793;28;25097;-66
2024/01/24 11:05:11;;;;;;;79.10;16.00;;;;;;;;;;4995763;28;24733;-66
2024/01/24 11:07:51;;;;;;;64.32;14.68;;;;;;;;;;5004574;28;25151;-65
2024/01/24 11:10:22;;;;;;;59.38;14.63;;;;;;;;;;5006059;28;25070;-64
2024/01/24 11:12:49;;;;;;;61.20;13.50;;;;;;;;;;5004572;28;25055;-67
2024/01/24 11:15:15;;;;;;;69.18;15.80;;;;;;;;;;4982788;28;25080;-66
2024/01/24 11:17:42;;;;;;;62.58;14.57;;;;;;;;;;5000077;28;25091;-65
2024/01/24 11:20:09;;;;;;;78.10;14.30;;;;;;;;;;5002486;28;25230;-65
2024/01/24 11:22:36;;;;;;;75.68;16.48;;;;;;;;;;5001840;28;25078;-65
2024/01/24 11:25:02;;;;;;;68.97;13.07;;;;;;;;;;5001594;28;25084;-65
2024/01/24 11:27:33;;;;;;;55.40;14.90;;;;;;;;;;5001914;28;25088;-66
2024/01/24 11:30:00;;;;;;;60.47;13.80;;;;;;;;;;5004557;28;25067;-67
2024/01/24 11:32:47;;;;;;;66.50;14.10;;;;;;;;;;5005504;28;25058;-67
2024/01/24 11:35:29;;;;;;;63.28;16.90;;;;;;;;;;5002082;28;25121;-67
2024/01/24 11:37:55;;;;;;;61.58;15.40;;;;;;;;;;4993809;28;25053;-68
2024/01/24 11:40:24;;;;;;;56.33;12.88;;;;;;;;;;4989081;28;25080;-68
2024/01/24 11:42:57;;;;;;;74.68;13.50;;;;;;;;;;5007066;28;25152;-64
2024/01/24 11:45:24;;;;;;;;;;;;;;;;;;5011214;28;25062;-67
2024/01/24 11:47:51;;;;;;;51.00;11.25;;;;;;;;;;5004241;28;24075;-66
2024/01/24 11:50:17;;;;;;;53.35;12.18;;;;;;;;;;5002341;28;25075;-66
2024/01/24 11:52:44;;;;;;;69.60;14.38;;;;;;;;;;5003679;28;25073;-68
2024/01/24 11:55:10;;;;;;;54.30;12.13;;;;;;;;;;5005037;28;25101;-67
2024/01/24 11:57:37;;;;;;;54.33;12.05;;;;;;;;;;5007135;28;25102;-68
2024/01/24 12:00:06;;;;;;;67.57;13.05;;;;;;;;;;4990132;28;25109;-70
2024/01/24 12:02:32;;;;;;;48.92;13.05;;;;;;;;;;5000486;28;25084;-67
2024/01/24 12:04:58;;;;;;;63.30;14.05;;;;;;;;;;5001882;28;25118;-66
2024/01/24 12:07:24;;;;;;;63.58;14.18;;;;;;;;;;5004350;28;25076;-66
2024/01/24 12:09:50;;;;;;;67.13;14.48;;;;;;;;;;5002761;28;25052;-66
2024/01/24 12:12:16;;;;;;;64.22;13.40;;;;;;;;;;5000354;28;25049;-67
2024/01/24 12:14:43;;;;;;;67.18;15.55;;;;;;;;;;5002798;28;25095;-67
2024/01/24 12:17:10;;;;;;;63.45;13.38;;;;;;;;;;5004296;28;25054;-67
2024/01/24 12:19:36;;;;;;;55.00;13.02;;;;;;;;;;5006010;28;25070;-67
2024/01/24 12:22:08;;;;;;;65.90;14.88;;;;;;;;;;4999965;28;25069;-70
2024/01/24 12:24:37;;;;;;;57.92;13.00;;;;;;;;;;4992503;28;25081;-67
2024/01/24 12:27:03;;;;;;;63.92;14.95;;;;;;;;;;5003090;28;25077;-64
2024/01/24 12:29:29;;;;;;;58.47;12.23;;;;;;;;;;5000342;28;25128;-65
2024/01/24 12:31:55;;;;;;;61.03;14.25;;;;;;;;;;5007032;28;25148;-65
2024/01/24 12:34:21;;;;;;;58.42;12.43;;;;;;;;;;5016083;28;25124;-62
2024/01/24 12:36:48;;;;;;;69.53;14.45;;;;;;;;;;5018004;28;25075;-63
2024/01/24 12:39:15;;;;;;;68.07;13.45;;;;;;;;;;5020162;28;25059;-64
2024/01/24 12:41:40;;;;;;;57.35;14.13;;;;;;;;;;5004326;28;25064;-67
2024/01/24 12:44:09;;;;;;;53.70;12.00;;;;;;;;;;4995735;28;25124;-65
2024/01/24 12:46:38;;;;;;;57.78;13.10;;;;;;;;;;5001119;28;25077;-63
2024/01/24 12:49:04;;;;;;;62.75;12.88;;;;;;;;;;5004715;28;25120;-65
2024/01/24 12:51:30;;;;;;;62.92;12.73;;;;;;;;;;5005787;28;25166;-66
2024/01/24 12:53:55;;;;;;;49.25;11.60;;;;;;;;;;5004784;28;25139;-66
2024/01/24 12:56:21;;;;;;;47.92;11.98;;;;;;;;;;5001521;28;25074;-65
2024/01/24 12:58:47;;;;;;;48.65;11.15;;;;;;;;;;5001661;28;25099;-66
2024/01/24 13:01:13;;;;;;;53.38;11.80;;;;;;;;;;5002211;28;25096;-67
2024/01/24 13:03:39;;;;;;;52.38;12.50;;;;;;;;;;4982630;28;25138;-65
2024/01/24 13:06:05;;;;;;;65.10;13.57;;;;;;;;;;5002921;28;25166;-65
2024/01/24 13:08:31;;;;;;;51.10;13.93;;;;;;;;;;5003561;28;25063;-66
2024/01/24 13:10:57;;;;;;;54.10;13.05;;;;;;;;;;5004334;28;25155;-66
2024/01/24 13:13:23;;;;;;;53.97;12.55;;;;;;;;;;5001976;28;25089;-65
2024/01/24 13:15:52;;;;;;;50.22;12.00;;;;;;;;;;4998975;28;25052;-64
2024/01/24 13:18:18;;;;;;;48.92;12.60;;;;;;;;;;5004848;28;25137;-66
2024/01/24 13:20:44;;;;;;;50.55;12.13;;;;;;;;;;5004644;28;25162;-65
2024/01/24 13:23:10;;;;;;;49.40;10.63;;;;;;;;;;5005435;28;25140;-64
2024/01/24 13:25:36;;;;;;;48.65;9.88;;;;;;;;;;5004894;28;25087;-65
2024/01/24 13:28:02;;;;;;;57.13;12.18;;;;;;;;;;5006004;28;25083;-66
2024/01/24 13:30:28;;;;;;;46.03;10.43;;;;;;;;;;5001954;28;25050;-66
2024/01/24 13:32:54;;;;;;;54.80;12.23;;;;;;;;;;5004724;28;25101;-66
2024/01/24 13:35:20;;;;;;;52.22;11.45;;;;;;;;;;5012561;28;25067;-65
2024/01/24 13:37:46;;;;;;;62.92;13.05;;;;;;;;;;5011101;28;25188;-65
2024/01/24 13:40:13;;;;;;;62.45;12.70;;;;;;;;;;5006137;28;25121;-65
2024/01/24 13:42:39;;;;;;;58.80;12.82;;;;;;;;;;5002520;28;25130;-65
2024/01/24 13:45:05;;;;;;;59.17;14.23;;;;;;;;;;5002239;28;25152;-63
2024/01/24 13:47:31;;;;;;;57.92;13.07;;;;;;;;;;5003562;28;25014;-65
2024/01/24 13:49:57;;;;;;;55.95;13.40;;;;;;;;;;5003370;28;25129;-67
2024/01/24 13:52:23;;;;;;;61.83;15.32;;;;;;;;;;4995722;28;25105;-65
2024/01/24 13:54:49;;;;;;;54.17;13.02;;;;;;;;;;4993714;28;25065;-65
2024/01/24 13:57:15;;;;;;;64.45;11.65;;;;;;;;;;4998697;28;25071;-64
2024/01/24 13:59:41;;;;;;;57.72;11.18;;;;;;;;;;5004510;28;25063;-65
2024/01/24 14:02:07;;;;;;;61.95;12.45;;;;;;;;;;4998564;28;25098;-65
2024/01/24 14:04:33;;;;;;;64.13;13.93;;;;;;;;;;5003280;28;25081;-66
2024/01/24 14:06:59;;;;;;;46.38;10.98;;;;;;;;;;5005951;28;25082;-67
2024/01/24 14:09:25;;;;;;;66.05;15.27;;;;;;;;;;5004412;28;25095;-64
2024/01/24 14:11:53;;;;;;;79.88;13.38;;;;;;;;;;5005256;28;25122;-65
2024/01/24 14:14:19;;;;;;;55.50;11.48;;;;;;;;;;5000919;28;25131;-66
2024/01/24 14:16:45;;;;;;;72.32;13.68;;;;;;;;;;5006069;28;25118;-65
2024/01/24 14:19:11;;;;;;;60.10;12.05;;;;;;;;;;5004327;28;25106;-64